IGO1903 VABB-LGAV
Flight info
| Callsign | IGO1903 |
|---|---|
| Flight time | N/A |
| Altitude | 34000 |
| Route | RAXET2A SAKUN V2 SUGID N571 PARAR M628 TULBU G652 TOKRA DCT ALROK DCT BOSOB DCT ITRUX Y511 PMA Z712 WEJ L677 CVO L617 TANSA UL617 SOREV |
| Aircraft | A21N/M-SDE2E3FGHIRWXY/LB1 |
Departure
| Time | 2026-05-06 05:40 |
|---|---|
| Airport | Chhatrapati Shivaji Maharaj International Airport (VABB) |
Arrival
| Time | N/A |
|---|---|
| Airport | Athens Eleftherios Venizelos International Airport (LGAV) |
| Time | Latitude | Longitude | Altitude | Speed | Heading |
|---|---|---|---|---|---|
| 2026-05-06 05:15 | 19.09473 | 72.87079 | 38 ft | 0 kts | 139° |
| 2026-05-06 05:30 | 19.09480 | 72.87073 | 38 ft | 2 kts | 139° |
| 2026-05-06 05:30 | 19.09491 | 72.87063 | 38 ft | 2 kts | 139° |
| 2026-05-06 05:30 | 19.09502 | 72.87052 | 38 ft | 2 kts | 139° |
| 2026-05-06 05:30 | 19.09514 | 72.87041 | 38 ft | 2 kts | 139° |
| 2026-05-06 05:31 | 19.09526 | 72.87031 | 39 ft | 2 kts | 146° |
| 2026-05-06 05:31 | 19.09540 | 72.87028 | 39 ft | 2 kts | 191° |
| 2026-05-06 05:31 | 19.09553 | 72.87033 | 39 ft | 0 kts | 224° |
| 2026-05-06 05:31 | 19.09557 | 72.87039 | 39 ft | 1 kts | 229° |
| 2026-05-06 05:32 | 19.09558 | 72.87040 | 39 ft | 0 kts | 229° |
| 2026-05-06 05:33 | 19.09558 | 72.87039 | 39 ft | 0 kts | 229° |
| 2026-05-06 05:34 | 19.09552 | 72.87033 | 39 ft | 2 kts | 229° |
| 2026-05-06 05:34 | 19.09530 | 72.87007 | 39 ft | 7 kts | 229° |
| 2026-05-06 05:34 | 19.09485 | 72.86955 | 38 ft | 11 kts | 228° |
| 2026-05-06 05:34 | 19.09431 | 72.86891 | 37 ft | 12 kts | 223° |
| 2026-05-06 05:35 | 19.09354 | 72.86891 | 35 ft | 13 kts | 137° |
| 2026-05-06 05:35 | 19.09287 | 72.86961 | 34 ft | 14 kts | 135° |
| 2026-05-06 05:35 | 19.09239 | 72.87020 | 33 ft | 10 kts | 110° |
| 2026-05-06 05:35 | 19.09192 | 72.87078 | 32 ft | 11 kts | 153° |
| 2026-05-06 05:36 | 19.09137 | 72.87138 | 31 ft | 12 kts | 103° |
| 2026-05-06 05:36 | 19.09134 | 72.87214 | 31 ft | 7 kts | 90° |
| 2026-05-06 05:36 | 19.09106 | 72.87259 | 30 ft | 8 kts | 155° |
| 2026-05-06 05:36 | 19.09058 | 72.87301 | 29 ft | 9 kts | 112° |
| 2026-05-06 05:37 | 19.09050 | 72.87375 | 29 ft | 10 kts | 89° |
| 2026-05-06 05:37 | 19.09051 | 72.87451 | 29 ft | 10 kts | 89° |
| 2026-05-06 05:37 | 19.09052 | 72.87529 | 30 ft | 10 kts | 89° |
| 2026-05-06 05:37 | 19.09053 | 72.87597 | 31 ft | 8 kts | 89° |
| 2026-05-06 05:38 | 19.09054 | 72.87659 | 31 ft | 8 kts | 89° |
| 2026-05-06 05:38 | 19.09054 | 72.87727 | 31 ft | 9 kts | 90° |
| 2026-05-06 05:38 | 19.09044 | 72.87791 | 32 ft | 8 kts | 140° |
| 2026-05-06 05:38 | 19.08983 | 72.87807 | 32 ft | 9 kts | 177° |
| 2026-05-06 05:39 | 19.08920 | 72.87801 | 31 ft | 9 kts | 206° |
| 2026-05-06 05:39 | 19.08884 | 72.87740 | 30 ft | 11 kts | 266° |
| 2026-05-06 05:39 | 19.08880 | 72.87476 | 28 ft | 69 kts | 269° |
| 2026-05-06 05:39 | 19.08872 | 72.86741 | 32 ft | 129 kts | 268° |
| 2026-05-06 05:40 | 19.08855 | 72.85593 | 39 ft | 179 kts | 269° |
| 2026-05-06 05:40 | 19.08831 | 72.84255 | 502 ft | 186 kts | 269° |
| 2026-05-06 05:40 | 19.08803 | 72.82860 | 1144 ft | 189 kts | 269° |
| 2026-05-06 05:40 | 19.08783 | 72.81473 | 1841 ft | 189 kts | 270° |
| 2026-05-06 05:41 | 19.08766 | 72.80045 | 2214 ft | 201 kts | 270° |
| 2026-05-06 05:41 | 19.08748 | 72.78524 | 2564 ft | 215 kts | 270° |
| 2026-05-06 05:41 | 19.08728 | 72.76883 | 2825 ft | 234 kts | 270° |
| 2026-05-06 05:41 | 19.08704 | 72.75099 | 3144 ft | 252 kts | 271° |
| 2026-05-06 05:42 | 19.08769 | 72.73179 | 3556 ft | 266 kts | 276° |
| 2026-05-06 05:42 | 19.09006 | 72.71241 | 4208 ft | 269 kts | 280° |
| 2026-05-06 05:42 | 19.09296 | 72.69286 | 4890 ft | 272 kts | 278° |
| 2026-05-06 05:42 | 19.09528 | 72.67311 | 5540 ft | 275 kts | 278° |
| 2026-05-06 05:43 | 19.09756 | 72.65279 | 6191 ft | 279 kts | 277° |
| 2026-05-06 05:43 | 19.09979 | 72.63250 | 6827 ft | 282 kts | 277° |
| 2026-05-06 05:43 | 19.10205 | 72.61187 | 7460 ft | 285 kts | 278° |
| 2026-05-06 05:43 | 19.10483 | 72.59100 | 8093 ft | 288 kts | 279° |
| 2026-05-06 05:44 | 19.10796 | 72.56997 | 8720 ft | 292 kts | 280° |
| 2026-05-06 05:44 | 19.11116 | 72.54882 | 9334 ft | 295 kts | 279° |
| 2026-05-06 05:44 | 19.11437 | 72.52741 | 9940 ft | 298 kts | 279° |
| 2026-05-06 05:44 | 19.11761 | 72.50557 | 10388 ft | 307 kts | 279° |
| 2026-05-06 05:45 | 19.12096 | 72.48289 | 10653 ft | 322 kts | 279° |
| 2026-05-06 05:45 | 19.12448 | 72.45890 | 10918 ft | 337 kts | 279° |
| 2026-05-06 05:45 | 19.12813 | 72.43394 | 11174 ft | 351 kts | 279° |
| 2026-05-06 05:45 | 19.13190 | 72.40808 | 11464 ft | 363 kts | 279° |
| 2026-05-06 05:46 | 19.13580 | 72.38131 | 11980 ft | 368 kts | 279° |
| 2026-05-06 05:46 | 19.13967 | 72.35471 | 12574 ft | 371 kts | 279° |
| 2026-05-06 05:46 | 19.14363 | 72.32741 | 13152 ft | 373 kts | 278° |
| 2026-05-06 05:46 | 19.14759 | 72.30009 | 13703 ft | 377 kts | 278° |
| 2026-05-06 05:47 | 19.15159 | 72.27252 | 14251 ft | 380 kts | 278° |
| 2026-05-06 05:47 | 19.15561 | 72.24474 | 14794 ft | 383 kts | 278° |
| 2026-05-06 05:47 | 19.15962 | 72.21695 | 15324 ft | 386 kts | 278° |
| 2026-05-06 05:47 | 19.16367 | 72.18896 | 15847 ft | 389 kts | 278° |
| 2026-05-06 05:48 | 19.16779 | 72.16038 | 16370 ft | 392 kts | 278° |
| 2026-05-06 05:48 | 19.17190 | 72.13187 | 16881 ft | 395 kts | 278° |
| 2026-05-06 05:48 | 19.17602 | 72.10329 | 17382 ft | 397 kts | 278° |
| 2026-05-06 05:48 | 19.18018 | 72.07434 | 17879 ft | 400 kts | 278° |
| 2026-05-06 05:49 | 19.18439 | 72.04505 | 18372 ft | 403 kts | 278° |
| 2026-05-06 05:49 | 19.18864 | 72.01543 | 18860 ft | 406 kts | 278° |
| 2026-05-06 05:49 | 19.19284 | 71.98611 | 19332 ft | 409 kts | 278° |
| 2026-05-06 05:49 | 19.19710 | 71.95624 | 19804 ft | 411 kts | 278° |
| 2026-05-06 05:50 | 19.20138 | 71.92615 | 20269 ft | 414 kts | 278° |
| 2026-05-06 05:50 | 19.20569 | 71.89587 | 20731 ft | 417 kts | 278° |
| 2026-05-06 05:50 | 19.21003 | 71.86543 | 21181 ft | 419 kts | 278° |
| 2026-05-06 05:50 | 19.21440 | 71.83471 | 21624 ft | 422 kts | 278° |
| 2026-05-06 05:51 | 19.21872 | 71.80425 | 22050 ft | 424 kts | 278° |
| 2026-05-06 05:51 | 19.22314 | 71.77319 | 22472 ft | 427 kts | 278° |
| 2026-05-06 05:51 | 19.22757 | 71.74197 | 22884 ft | 429 kts | 278° |
| 2026-05-06 05:51 | 19.23202 | 71.71058 | 23285 ft | 431 kts | 278° |
| 2026-05-06 05:52 | 19.23642 | 71.67945 | 23670 ft | 434 kts | 278° |
| 2026-05-06 05:52 | 19.24092 | 71.64764 | 24050 ft | 436 kts | 278° |
| 2026-05-06 05:52 | 19.24544 | 71.61567 | 24418 ft | 438 kts | 278° |
| 2026-05-06 05:52 | 19.24990 | 71.58400 | 24770 ft | 440 kts | 278° |
| 2026-05-06 05:53 | 19.25443 | 71.55184 | 25118 ft | 442 kts | 278° |
| 2026-05-06 05:53 | 19.25899 | 71.51948 | 25453 ft | 444 kts | 278° |
| 2026-05-06 05:53 | 19.26350 | 71.48732 | 25773 ft | 446 kts | 278° |
| 2026-05-06 05:53 | 19.26810 | 71.45457 | 26089 ft | 448 kts | 278° |
| 2026-05-06 05:54 | 19.27269 | 71.42180 | 26394 ft | 449 kts | 278° |
| 2026-05-06 05:54 | 19.27724 | 71.38926 | 26687 ft | 451 kts | 278° |
| 2026-05-06 05:54 | 19.28186 | 71.35622 | 26973 ft | 453 kts | 278° |
| 2026-05-06 05:54 | 19.28644 | 71.32342 | 27247 ft | 455 kts | 277° |
| 2026-05-06 05:55 | 19.29108 | 71.29008 | 27518 ft | 456 kts | 277° |
| 2026-05-06 05:55 | 19.29574 | 71.25660 | 27782 ft | 458 kts | 277° |
| 2026-05-06 05:55 | 19.30034 | 71.22350 | 28034 ft | 459 kts | 277° |
| 2026-05-06 05:55 | 19.30501 | 71.18986 | 28324 ft | 460 kts | 277° |
| 2026-05-06 05:56 | 19.30960 | 71.15683 | 28682 ft | 458 kts | 277° |
| 2026-05-06 05:56 | 19.31421 | 71.12348 | 29047 ft | 456 kts | 277° |
| 2026-05-06 05:56 | 19.31882 | 71.09019 | 29390 ft | 455 kts | 277° |
| 2026-05-06 05:56 | 19.32342 | 71.05688 | 29715 ft | 454 kts | 277° |
| 2026-05-06 05:57 | 19.32798 | 71.02378 | 30029 ft | 453 kts | 277° |
| 2026-05-06 05:57 | 19.33247 | 70.99116 | 30329 ft | 452 kts | 277° |
| 2026-05-06 05:57 | 19.33700 | 70.95815 | 30621 ft | 452 kts | 277° |
| 2026-05-06 05:57 | 19.34153 | 70.92519 | 30902 ft | 451 kts | 277° |
| 2026-05-06 05:58 | 19.34605 | 70.89223 | 31177 ft | 450 kts | 277° |
| 2026-05-06 05:58 | 19.35049 | 70.85979 | 31439 ft | 450 kts | 277° |
| 2026-05-06 05:58 | 19.35498 | 70.82690 | 31697 ft | 449 kts | 278° |
| 2026-05-06 05:58 | 19.35946 | 70.79412 | 31945 ft | 449 kts | 278° |
| 2026-05-06 05:59 | 19.36388 | 70.76175 | 32172 ft | 449 kts | 278° |
| 2026-05-06 05:59 | 19.36834 | 70.72902 | 32366 ft | 449 kts | 278° |
| 2026-05-06 05:59 | 19.37282 | 70.69608 | 32541 ft | 450 kts | 278° |
| 2026-05-06 05:59 | 19.37729 | 70.66322 | 32712 ft | 450 kts | 278° |
| 2026-05-06 06:00 | 19.38170 | 70.63068 | 32882 ft | 451 kts | 278° |
| 2026-05-06 06:00 | 19.38617 | 70.59771 | 33049 ft | 451 kts | 278° |
| 2026-05-06 06:00 | 19.39064 | 70.56467 | 33210 ft | 452 kts | 278° |
| 2026-05-06 06:00 | 19.39505 | 70.53199 | 33363 ft | 452 kts | 278° |
| 2026-05-06 06:01 | 19.39953 | 70.49881 | 33514 ft | 453 kts | 278° |
| 2026-05-06 06:01 | 19.40399 | 70.46569 | 33660 ft | 453 kts | 278° |
| 2026-05-06 06:01 | 19.40840 | 70.43296 | 33799 ft | 454 kts | 278° |
| 2026-05-06 06:01 | 19.41288 | 70.39956 | 33870 ft | 455 kts | 278° |
| 2026-05-06 06:02 | 19.42175 | 70.33343 | 33875 ft | 455 kts | 277° |
| 2026-05-06 06:02 | 19.43066 | 70.26675 | 33877 ft | 455 kts | 277° |
| 2026-05-06 06:03 | 19.43951 | 70.20039 | 33877 ft | 455 kts | 277° |
| 2026-05-06 06:03 | 19.44832 | 70.13410 | 33877 ft | 455 kts | 277° |
| 2026-05-06 06:04 | 19.45716 | 70.06744 | 33877 ft | 455 kts | 277° |
| 2026-05-06 06:04 | 19.46592 | 70.00112 | 33877 ft | 455 kts | 277° |
| 2026-05-06 06:05 | 19.47466 | 69.93483 | 33877 ft | 455 kts | 277° |
| 2026-05-06 06:05 | 19.48341 | 69.86829 | 33877 ft | 455 kts | 277° |
| 2026-05-06 06:06 | 19.49216 | 69.80154 | 33877 ft | 455 kts | 277° |
| 2026-05-06 06:06 | 19.50082 | 69.73528 | 33877 ft | 455 kts | 277° |
| 2026-05-06 06:07 | 19.50946 | 69.66900 | 33877 ft | 455 kts | 277° |
| 2026-05-06 06:07 | 19.51813 | 69.60236 | 33877 ft | 455 kts | 277° |
| 2026-05-06 06:08 | 19.52677 | 69.53580 | 33877 ft | 455 kts | 277° |
| 2026-05-06 06:08 | 19.53534 | 69.46950 | 33877 ft | 455 kts | 277° |
| 2026-05-06 06:09 | 19.54581 | 69.40317 | 33876 ft | 455 kts | 282° |
| 2026-05-06 06:09 | 19.56272 | 69.33843 | 33877 ft | 456 kts | 288° |
| 2026-05-06 06:10 | 19.58610 | 69.27640 | 33877 ft | 456 kts | 295° |
| 2026-05-06 06:10 | 19.61468 | 69.21597 | 33879 ft | 456 kts | 296° |
| 2026-05-06 06:11 | 19.64388 | 69.15559 | 33883 ft | 456 kts | 296° |
| 2026-05-06 06:11 | 19.67301 | 69.09512 | 33889 ft | 456 kts | 296° |
| 2026-05-06 06:12 | 19.70199 | 69.03475 | 33896 ft | 455 kts | 296° |
| 2026-05-06 06:12 | 19.73073 | 68.97475 | 33900 ft | 454 kts | 297° |
| 2026-05-06 06:13 | 19.75952 | 68.91459 | 33901 ft | 454 kts | 297° |
| 2026-05-06 06:13 | 19.78815 | 68.85471 | 33901 ft | 454 kts | 297° |
| 2026-05-06 06:14 | 19.81677 | 68.79481 | 33902 ft | 454 kts | 297° |
| 2026-05-06 06:14 | 19.84562 | 68.73433 | 33901 ft | 454 kts | 297° |
| 2026-05-06 06:15 | 19.87416 | 68.67444 | 33901 ft | 454 kts | 297° |
| 2026-05-06 06:15 | 19.90291 | 68.61405 | 33901 ft | 454 kts | 297° |
| 2026-05-06 06:16 | 19.93162 | 68.55368 | 33901 ft | 454 kts | 297° |
| 2026-05-06 06:16 | 19.96006 | 68.49379 | 33881 ft | 454 kts | 297° |
| 2026-05-06 06:17 | 19.98889 | 68.43304 | 33863 ft | 454 kts | 297° |
| 2026-05-06 06:17 | 20.01752 | 68.37262 | 33854 ft | 454 kts | 297° |
| 2026-05-06 06:18 | 20.04599 | 68.31251 | 33850 ft | 454 kts | 296° |
| 2026-05-06 06:18 | 20.07443 | 68.25240 | 33849 ft | 454 kts | 296° |
| 2026-05-06 06:19 | 20.10283 | 68.19228 | 33849 ft | 455 kts | 296° |
| 2026-05-06 06:19 | 20.13135 | 68.13184 | 33848 ft | 454 kts | 296° |
| 2026-05-06 06:20 | 20.15982 | 68.07145 | 33848 ft | 454 kts | 296° |
| 2026-05-06 06:20 | 20.18830 | 68.01097 | 33848 ft | 454 kts | 296° |
| 2026-05-06 06:21 | 20.21659 | 67.95084 | 33849 ft | 454 kts | 296° |
| 2026-05-06 06:21 | 20.24585 | 67.88856 | 33848 ft | 454 kts | 296° |
| 2026-05-06 06:22 | 20.27535 | 67.82571 | 33848 ft | 454 kts | 296° |
| 2026-05-06 06:22 | 20.30416 | 67.76427 | 33848 ft | 454 kts | 296° |
| 2026-05-06 06:23 | 20.33429 | 67.69994 | 33848 ft | 455 kts | 296° |
| 2026-05-06 06:23 | 20.36392 | 67.63658 | 33849 ft | 454 kts | 296° |
| 2026-05-06 06:24 | 20.39317 | 67.57398 | 33848 ft | 455 kts | 296° |
| 2026-05-06 06:24 | 20.42287 | 67.51034 | 33848 ft | 454 kts | 296° |
| 2026-05-06 06:25 | 20.45226 | 67.44729 | 33848 ft | 455 kts | 296° |
| 2026-05-06 06:26 | 20.49655 | 67.35211 | 33848 ft | 455 kts | 296° |
| 2026-05-06 06:26 | 20.52610 | 67.28855 | 33849 ft | 454 kts | 296° |
| 2026-05-06 06:27 | 20.55540 | 67.22543 | 33848 ft | 454 kts | 296° |
| 2026-05-06 06:27 | 20.58506 | 67.16146 | 33849 ft | 454 kts | 296° |
| 2026-05-06 06:28 | 20.61441 | 67.09811 | 33848 ft | 454 kts | 296° |
| 2026-05-06 06:28 | 20.64381 | 67.03458 | 33848 ft | 455 kts | 296° |
| 2026-05-06 06:29 | 20.67285 | 66.97171 | 33848 ft | 455 kts | 296° |
| 2026-05-06 06:29 | 20.70233 | 66.90784 | 33848 ft | 456 kts | 296° |
| 2026-05-06 06:30 | 20.73088 | 66.84589 | 33848 ft | 456 kts | 296° |
| 2026-05-06 06:30 | 20.76054 | 66.78146 | 33848 ft | 456 kts | 296° |
| 2026-05-06 06:31 | 20.78980 | 66.71785 | 33848 ft | 456 kts | 296° |
| 2026-05-06 06:31 | 20.81911 | 66.65404 | 33849 ft | 457 kts | 296° |
| 2026-05-06 06:32 | 20.84839 | 66.59023 | 33857 ft | 456 kts | 296° |
| 2026-05-06 06:32 | 20.87750 | 66.52669 | 33865 ft | 456 kts | 296° |
| 2026-05-06 06:33 | 20.90651 | 66.46330 | 33870 ft | 456 kts | 296° |
| 2026-05-06 06:33 | 20.93550 | 66.39990 | 33873 ft | 456 kts | 296° |
| 2026-05-06 06:34 | 20.96486 | 66.33561 | 33874 ft | 456 kts | 296° |
| 2026-05-06 06:34 | 20.99356 | 66.27274 | 33875 ft | 456 kts | 295° |
| 2026-05-06 06:35 | 21.02214 | 66.21004 | 33876 ft | 455 kts | 295° |
| 2026-05-06 06:35 | 21.05097 | 66.14668 | 33876 ft | 453 kts | 295° |
| 2026-05-06 06:36 | 21.07981 | 66.08320 | 33877 ft | 449 kts | 295° |
| 2026-05-06 06:36 | 21.10793 | 66.02122 | 33876 ft | 446 kts | 295° |
| 2026-05-06 06:37 | 21.13640 | 65.95956 | 33876 ft | 443 kts | 296° |
| 2026-05-06 06:37 | 21.16588 | 65.89722 | 33875 ft | 443 kts | 296° |
| 2026-05-06 06:38 | 21.19476 | 65.83603 | 33874 ft | 443 kts | 296° |
| 2026-05-06 06:38 | 21.22291 | 65.77624 | 33870 ft | 443 kts | 296° |
| 2026-05-06 06:39 | 21.25211 | 65.71411 | 33865 ft | 443 kts | 296° |
| 2026-05-06 06:39 | 21.28079 | 65.65299 | 33859 ft | 443 kts | 296° |
| 2026-05-06 06:40 | 21.30981 | 65.59108 | 33854 ft | 443 kts | 296° |
| 2026-05-06 06:40 | 21.33902 | 65.52868 | 33851 ft | 443 kts | 296° |
| 2026-05-06 06:41 | 21.36803 | 65.46664 | 33849 ft | 443 kts | 296° |
| 2026-05-06 06:41 | 21.39689 | 65.40485 | 33849 ft | 443 kts | 296° |
| 2026-05-06 06:42 | 21.42587 | 65.34274 | 33849 ft | 443 kts | 295° |
| 2026-05-06 06:42 | 21.45484 | 65.28053 | 33849 ft | 443 kts | 295° |
| 2026-05-06 06:43 | 21.48378 | 65.21835 | 33848 ft | 443 kts | 295° |
| 2026-05-06 06:43 | 21.51238 | 65.15685 | 33848 ft | 443 kts | 295° |
| 2026-05-06 06:44 | 21.54143 | 65.09426 | 33848 ft | 443 kts | 295° |
| 2026-05-06 06:44 | 21.57001 | 65.03263 | 33849 ft | 443 kts | 295° |
| 2026-05-06 06:45 | 21.59859 | 64.97095 | 33848 ft | 443 kts | 295° |
| 2026-05-06 06:45 | 21.62714 | 64.90924 | 33848 ft | 443 kts | 295° |
| 2026-05-06 06:46 | 21.65590 | 64.84701 | 33848 ft | 444 kts | 295° |
| 2026-05-06 06:46 | 21.68445 | 64.78513 | 33848 ft | 444 kts | 295° |
| 2026-05-06 06:47 | 21.71305 | 64.72308 | 33848 ft | 444 kts | 295° |
| 2026-05-06 06:47 | 21.74198 | 64.66025 | 33848 ft | 444 kts | 295° |
| 2026-05-06 06:48 | 21.77069 | 64.59780 | 33848 ft | 444 kts | 295° |
| 2026-05-06 06:48 | 21.79929 | 64.53552 | 33848 ft | 444 kts | 295° |
| 2026-05-06 06:49 | 21.82783 | 64.47332 | 33848 ft | 444 kts | 295° |
| 2026-05-06 06:49 | 21.85641 | 64.41094 | 33848 ft | 444 kts | 295° |
| 2026-05-06 06:50 | 21.88503 | 64.34838 | 33848 ft | 444 kts | 295° |
| 2026-05-06 06:50 | 21.91338 | 64.28638 | 33848 ft | 444 kts | 295° |
| 2026-05-06 06:51 | 21.94211 | 64.22346 | 33848 ft | 444 kts | 295° |
| 2026-05-06 06:51 | 21.97049 | 64.16120 | 33848 ft | 444 kts | 295° |
| 2026-05-06 06:52 | 21.99918 | 64.09820 | 33848 ft | 444 kts | 295° |
| 2026-05-06 06:52 | 22.02752 | 64.03588 | 33848 ft | 444 kts | 295° |
| 2026-05-06 06:53 | 22.05467 | 63.97614 | 33849 ft | 444 kts | 295° |
| 2026-05-06 06:53 | 22.08187 | 63.91618 | 33849 ft | 444 kts | 295° |
| 2026-05-06 06:54 | 22.10913 | 63.85603 | 33848 ft | 444 kts | 295° |
| 2026-05-06 06:54 | 22.13629 | 63.79605 | 33849 ft | 444 kts | 295° |
| 2026-05-06 06:55 | 22.16336 | 63.73616 | 33849 ft | 444 kts | 295° |
| 2026-05-06 06:55 | 22.19053 | 63.67601 | 33849 ft | 444 kts | 295° |
| 2026-05-06 06:56 | 22.21759 | 63.61601 | 33849 ft | 444 kts | 295° |
| 2026-05-06 06:56 | 22.24453 | 63.55622 | 33849 ft | 444 kts | 295° |
| 2026-05-06 06:57 | 22.27149 | 63.49631 | 33849 ft | 444 kts | 295° |
| 2026-05-06 06:57 | 22.29862 | 63.43594 | 33849 ft | 444 kts | 295° |
| 2026-05-06 06:58 | 22.32565 | 63.37575 | 33849 ft | 444 kts | 295° |
| 2026-05-06 06:58 | 22.35270 | 63.31543 | 33849 ft | 444 kts | 294° |
| 2026-05-06 06:59 | 22.37978 | 63.25496 | 33848 ft | 444 kts | 294° |
| 2026-05-06 06:59 | 22.40631 | 63.19447 | 33848 ft | 443 kts | 292° |
| 2026-05-06 07:00 | 22.42740 | 63.13214 | 33848 ft | 442 kts | 285° |
| 2026-05-06 07:00 | 22.44172 | 63.06705 | 33848 ft | 442 kts | 279° |
| 2026-05-06 07:01 | 22.44893 | 63.00112 | 33849 ft | 441 kts | 274° |
| 2026-05-06 07:01 | 22.45313 | 62.93503 | 33849 ft | 441 kts | 273° |
| 2026-05-06 07:02 | 22.45726 | 62.86860 | 33848 ft | 440 kts | 273° |
| 2026-05-06 07:02 | 22.46141 | 62.80202 | 33835 ft | 440 kts | 273° |
| 2026-05-06 07:03 | 22.46551 | 62.73608 | 33827 ft | 440 kts | 273° |
| 2026-05-06 07:03 | 22.46962 | 62.66978 | 33823 ft | 440 kts | 273° |
| 2026-05-06 07:04 | 22.47371 | 62.60323 | 33822 ft | 441 kts | 273° |
| 2026-05-06 07:04 | 22.47777 | 62.53684 | 33822 ft | 440 kts | 273° |
| 2026-05-06 07:05 | 22.48180 | 62.47049 | 33822 ft | 440 kts | 273° |
| 2026-05-06 07:05 | 22.48578 | 62.40456 | 33822 ft | 441 kts | 273° |
| 2026-05-06 07:06 | 22.48976 | 62.33813 | 33822 ft | 440 kts | 273° |
| 2026-05-06 07:06 | 22.49366 | 62.27241 | 33822 ft | 440 kts | 273° |
| 2026-05-06 07:07 | 22.49757 | 62.20633 | 33822 ft | 440 kts | 273° |
| 2026-05-06 07:07 | 22.50146 | 62.13990 | 33822 ft | 440 kts | 273° |
| 2026-05-06 07:08 | 22.50529 | 62.07419 | 33822 ft | 440 kts | 273° |
| 2026-05-06 07:08 | 22.50911 | 62.00815 | 33822 ft | 440 kts | 273° |
| 2026-05-06 07:09 | 22.51290 | 61.94211 | 33822 ft | 440 kts | 273° |
| 2026-05-06 07:09 | 22.51667 | 61.87611 | 33821 ft | 440 kts | 273° |
| 2026-05-06 07:10 | 22.52041 | 61.80998 | 33822 ft | 440 kts | 273° |
| 2026-05-06 07:10 | 22.52412 | 61.74409 | 33822 ft | 440 kts | 273° |
| 2026-05-06 07:11 | 22.52781 | 61.67791 | 33822 ft | 440 kts | 273° |
| 2026-05-06 07:11 | 22.53147 | 61.61182 | 33822 ft | 440 kts | 273° |
| 2026-05-06 07:12 | 22.53511 | 61.54570 | 33822 ft | 440 kts | 273° |
| 2026-05-06 07:12 | 22.53870 | 61.47990 | 33822 ft | 440 kts | 273° |
| 2026-05-06 07:13 | 22.54228 | 61.41372 | 33822 ft | 440 kts | 273° |
| 2026-05-06 07:13 | 22.54583 | 61.34774 | 33822 ft | 440 kts | 272° |
| 2026-05-06 07:14 | 22.54937 | 61.28154 | 33822 ft | 440 kts | 272° |
| 2026-05-06 07:14 | 22.55286 | 61.21567 | 33822 ft | 440 kts | 272° |
| 2026-05-06 07:15 | 22.55635 | 61.14922 | 33822 ft | 440 kts | 272° |
| 2026-05-06 07:15 | 22.55979 | 61.08351 | 33822 ft | 440 kts | 272° |
| 2026-05-06 07:16 | 22.56321 | 61.01745 | 33822 ft | 440 kts | 272° |
| 2026-05-06 07:16 | 22.56661 | 60.95138 | 33822 ft | 440 kts | 272° |
| 2026-05-06 07:17 | 22.57000 | 60.88467 | 33822 ft | 440 kts | 272° |
| 2026-05-06 07:17 | 22.57332 | 60.81819 | 33822 ft | 440 kts | 272° |
| 2026-05-06 07:18 | 22.57661 | 60.75209 | 33822 ft | 440 kts | 272° |
| 2026-05-06 07:18 | 22.57990 | 60.68601 | 33822 ft | 440 kts | 272° |
| 2026-05-06 07:19 | 22.58317 | 60.61967 | 33822 ft | 440 kts | 272° |
| 2026-05-06 07:19 | 22.58640 | 60.55335 | 33821 ft | 440 kts | 272° |
| 2026-05-06 07:20 | 22.58957 | 60.48704 | 33822 ft | 440 kts | 272° |
| 2026-05-06 07:20 | 22.59272 | 60.42070 | 33822 ft | 440 kts | 272° |
| 2026-05-06 07:21 | 22.59584 | 60.35453 | 33822 ft | 440 kts | 272° |
| 2026-05-06 07:21 | 22.59899 | 60.28756 | 33822 ft | 440 kts | 272° |
| 2026-05-06 07:22 | 22.60207 | 60.22133 | 33822 ft | 440 kts | 272° |
| 2026-05-06 07:22 | 22.60512 | 60.15519 | 33822 ft | 440 kts | 272° |
| 2026-05-06 07:23 | 22.60817 | 60.08874 | 33822 ft | 440 kts | 272° |
| 2026-05-06 07:23 | 22.61118 | 60.02230 | 33822 ft | 440 kts | 272° |
| 2026-05-06 07:24 | 22.61417 | 59.95600 | 33822 ft | 440 kts | 272° |
| 2026-05-06 07:24 | 22.61713 | 59.88970 | 33822 ft | 440 kts | 272° |
| 2026-05-06 07:25 | 22.62006 | 59.82346 | 33822 ft | 440 kts | 272° |
| 2026-05-06 07:25 | 22.62295 | 59.75721 | 33822 ft | 440 kts | 272° |
| 2026-05-06 07:26 | 22.62578 | 59.69089 | 33822 ft | 440 kts | 272° |
| 2026-05-06 07:26 | 22.62860 | 59.62460 | 33822 ft | 440 kts | 272° |
| 2026-05-06 07:27 | 22.63140 | 59.55848 | 33822 ft | 440 kts | 272° |
| 2026-05-06 07:27 | 22.63419 | 59.49200 | 33822 ft | 440 kts | 272° |
| 2026-05-06 07:28 | 22.63693 | 59.42588 | 33822 ft | 440 kts | 272° |
| 2026-05-06 07:28 | 22.64101 | 59.32649 | 33822 ft | 440 kts | 272° |
| 2026-05-06 07:29 | 22.64369 | 59.26051 | 33822 ft | 440 kts | 272° |
| 2026-05-06 07:29 | 22.64635 | 59.19436 | 33822 ft | 440 kts | 272° |
| 2026-05-06 07:30 | 22.64899 | 59.12800 | 33822 ft | 440 kts | 272° |
| 2026-05-06 07:30 | 22.65158 | 59.06209 | 33822 ft | 440 kts | 272° |
| 2026-05-06 07:31 | 22.65415 | 58.99635 | 33822 ft | 440 kts | 272° |
| 2026-05-06 07:31 | 22.65670 | 58.93030 | 33822 ft | 440 kts | 271° |
| 2026-05-06 07:32 | 22.65922 | 58.86443 | 33822 ft | 440 kts | 271° |
| 2026-05-06 07:32 | 22.66172 | 58.79842 | 33822 ft | 440 kts | 271° |
| 2026-05-06 07:33 | 22.66420 | 58.73218 | 33822 ft | 441 kts | 271° |
| 2026-05-06 07:33 | 22.66684 | 58.66583 | 33821 ft | 441 kts | 273° |
| 2026-05-06 07:34 | 22.67383 | 58.60032 | 33822 ft | 442 kts | 279° |
| 2026-05-06 07:34 | 22.68726 | 58.53553 | 33822 ft | 443 kts | 284° |
| 2026-05-06 07:35 | 22.70403 | 58.47143 | 33822 ft | 443 kts | 285° |
| 2026-05-06 07:35 | 22.72084 | 58.40757 | 33822 ft | 443 kts | 285° |
| 2026-05-06 07:36 | 22.73761 | 58.34356 | 33822 ft | 443 kts | 284° |
| 2026-05-06 07:36 | 22.75429 | 58.27970 | 33822 ft | 443 kts | 284° |
| 2026-05-06 07:37 | 22.77090 | 58.21598 | 33822 ft | 443 kts | 284° |
| 2026-05-06 07:37 | 22.78761 | 58.15173 | 33822 ft | 442 kts | 284° |
| 2026-05-06 07:38 | 22.80426 | 58.08760 | 33822 ft | 443 kts | 284° |
| 2026-05-06 07:38 | 22.82081 | 58.02376 | 33822 ft | 442 kts | 284° |
| 2026-05-06 07:39 | 22.83741 | 57.95960 | 33822 ft | 442 kts | 284° |
| 2026-05-06 07:39 | 22.85399 | 57.89544 | 33822 ft | 443 kts | 284° |
| 2026-05-06 07:40 | 22.87043 | 57.83173 | 33822 ft | 443 kts | 284° |
| 2026-05-06 07:40 | 22.88701 | 57.76727 | 33822 ft | 442 kts | 284° |
| 2026-05-06 07:41 | 22.90309 | 57.70336 | 33822 ft | 441 kts | 284° |
| 2026-05-06 07:41 | 22.91845 | 57.64152 | 33822 ft | 440 kts | 284° |
| 2026-05-06 07:42 | 22.93475 | 57.57599 | 33822 ft | 439 kts | 283° |
| 2026-05-06 07:42 | 22.95063 | 57.51216 | 33822 ft | 438 kts | 283° |
| 2026-05-06 07:43 | 22.96637 | 57.44869 | 33822 ft | 437 kts | 283° |
| 2026-05-06 07:43 | 22.98037 | 57.38521 | 33821 ft | 434 kts | 277° |
| 2026-05-06 07:44 | 22.98272 | 57.32011 | 33822 ft | 431 kts | 264° |
| 2026-05-06 07:44 | 22.97186 | 57.25664 | 33821 ft | 431 kts | 252° |
| 2026-05-06 07:45 | 22.94864 | 57.19683 | 33822 ft | 432 kts | 243° |
| 2026-05-06 07:45 | 22.92084 | 57.13866 | 33821 ft | 435 kts | 243° |
| 2026-05-06 07:46 | 22.89299 | 57.08062 | 33821 ft | 437 kts | 242° |
| 2026-05-06 07:46 | 22.86515 | 57.02241 | 33821 ft | 438 kts | 242° |
| 2026-05-06 07:47 | 22.83708 | 56.96374 | 33822 ft | 437 kts | 242° |
| 2026-05-06 07:47 | 22.80921 | 56.90562 | 33822 ft | 437 kts | 242° |
| 2026-05-06 07:48 | 22.78117 | 56.84726 | 33822 ft | 436 kts | 242° |
| 2026-05-06 07:48 | 22.75320 | 56.78910 | 33826 ft | 436 kts | 242° |
| 2026-05-06 07:49 | 22.72530 | 56.73112 | 33834 ft | 437 kts | 242° |
| 2026-05-06 07:49 | 22.69720 | 56.67277 | 33846 ft | 437 kts | 242° |
| 2026-05-06 07:50 | 22.66920 | 56.61467 | 33854 ft | 437 kts | 242° |
| 2026-05-06 07:50 | 22.63948 | 56.55311 | 33857 ft | 437 kts | 242° |
| 2026-05-06 07:51 | 22.60978 | 56.49161 | 33858 ft | 437 kts | 242° |
| 2026-05-06 07:51 | 22.57984 | 56.42968 | 33860 ft | 437 kts | 242° |
| 2026-05-06 07:52 | 22.54985 | 56.36776 | 33865 ft | 437 kts | 242° |
| 2026-05-06 07:52 | 22.52004 | 56.30631 | 33871 ft | 437 kts | 241° |
| 2026-05-06 07:53 | 22.48998 | 56.24431 | 33873 ft | 437 kts | 241° |
| 2026-05-06 07:53 | 22.46001 | 56.18257 | 33874 ft | 437 kts | 242° |
| 2026-05-06 07:54 | 22.42985 | 56.12048 | 33874 ft | 437 kts | 242° |
| 2026-05-06 07:54 | 22.39982 | 56.05872 | 33875 ft | 437 kts | 241° |
| 2026-05-06 07:55 | 22.36997 | 55.99752 | 33875 ft | 437 kts | 241° |
| 2026-05-06 07:55 | 22.33949 | 55.93548 | 33875 ft | 437 kts | 241° |
| 2026-05-06 07:56 | 22.30947 | 55.87439 | 33875 ft | 437 kts | 241° |
| 2026-05-06 07:56 | 22.27907 | 55.81255 | 33875 ft | 437 kts | 241° |
| 2026-05-06 07:57 | 22.24891 | 55.75127 | 33875 ft | 437 kts | 241° |
| 2026-05-06 07:57 | 22.21907 | 55.69046 | 33875 ft | 437 kts | 242° |
| 2026-05-06 07:58 | 22.18999 | 55.62870 | 33874 ft | 437 kts | 245° |
| 2026-05-06 07:58 | 22.16736 | 55.56359 | 33875 ft | 438 kts | 252° |
| 2026-05-06 07:59 | 22.15268 | 55.49612 | 33875 ft | 439 kts | 259° |
| 2026-05-06 07:59 | 22.14558 | 55.42963 | 33876 ft | 440 kts | 263° |
| 2026-05-06 08:00 | 22.13989 | 55.35970 | 33875 ft | 441 kts | 264° |
| 2026-05-06 08:00 | 22.13425 | 55.29062 | 33875 ft | 440 kts | 263° |
| 2026-05-06 08:01 | 22.12853 | 55.22142 | 33875 ft | 440 kts | 263° |
| 2026-05-06 08:01 | 22.12281 | 55.15277 | 33875 ft | 440 kts | 263° |
| 2026-05-06 08:02 | 22.11694 | 55.08279 | 33875 ft | 439 kts | 263° |
| 2026-05-06 08:02 | 22.11110 | 55.01351 | 33875 ft | 438 kts | 264° |
| 2026-05-06 08:03 | 22.10522 | 54.94398 | 33875 ft | 438 kts | 264° |
| 2026-05-06 08:03 | 22.09935 | 54.87481 | 33875 ft | 438 kts | 264° |
| 2026-05-06 08:04 | 22.09345 | 54.80558 | 33874 ft | 438 kts | 264° |
| 2026-05-06 08:04 | 22.08756 | 54.73700 | 33872 ft | 438 kts | 264° |
| 2026-05-06 08:05 | 22.08184 | 54.67069 | 33871 ft | 438 kts | 264° |
| 2026-05-06 08:05 | 22.07618 | 54.60547 | 33861 ft | 437 kts | 264° |
| 2026-05-06 08:06 | 22.07051 | 54.54031 | 33844 ft | 437 kts | 264° |
| 2026-05-06 08:06 | 22.06480 | 54.47505 | 33824 ft | 437 kts | 264° |
| 2026-05-06 08:07 | 22.05906 | 54.40976 | 33806 ft | 438 kts | 264° |
| 2026-05-06 08:07 | 22.05329 | 54.34454 | 33798 ft | 438 kts | 263° |
| 2026-05-06 08:08 | 22.04750 | 54.27934 | 33794 ft | 438 kts | 263° |
| 2026-05-06 08:08 | 22.04170 | 54.21422 | 33793 ft | 438 kts | 263° |
| 2026-05-06 08:09 | 22.03589 | 54.14936 | 33793 ft | 438 kts | 263° |
| 2026-05-06 08:09 | 22.03000 | 54.08384 | 33793 ft | 438 kts | 263° |
| 2026-05-06 08:10 | 22.02413 | 54.01892 | 33793 ft | 438 kts | 263° |
| 2026-05-06 08:10 | 22.01822 | 53.95375 | 33793 ft | 438 kts | 263° |
| 2026-05-06 08:11 | 22.01230 | 53.88872 | 33793 ft | 438 kts | 263° |
| 2026-05-06 08:11 | 22.00631 | 53.82329 | 33794 ft | 438 kts | 263° |
| 2026-05-06 08:12 | 21.99992 | 53.75376 | 33794 ft | 438 kts | 263° |
| 2026-05-06 08:12 | 21.99357 | 53.68499 | 33794 ft | 438 kts | 263° |
| 2026-05-06 08:13 | 21.98711 | 53.61535 | 33794 ft | 438 kts | 263° |
| 2026-05-06 08:13 | 21.98065 | 53.54611 | 33794 ft | 438 kts | 263° |
| 2026-05-06 08:14 | 21.97423 | 53.47752 | 33794 ft | 438 kts | 263° |
| 2026-05-06 08:14 | 21.96775 | 53.40860 | 33794 ft | 438 kts | 263° |
| 2026-05-06 08:15 | 21.96122 | 53.33949 | 33795 ft | 438 kts | 263° |
| 2026-05-06 08:15 | 21.95462 | 53.27003 | 33793 ft | 438 kts | 263° |
| 2026-05-06 08:16 | 21.94804 | 53.20105 | 33793 ft | 438 kts | 263° |
| 2026-05-06 08:16 | 21.94152 | 53.13291 | 33793 ft | 438 kts | 263° |
| 2026-05-06 08:17 | 21.93489 | 53.06387 | 33793 ft | 438 kts | 263° |
| 2026-05-06 08:17 | 21.92829 | 52.99551 | 33793 ft | 438 kts | 263° |
| 2026-05-06 08:18 | 21.92176 | 52.92792 | 33793 ft | 437 kts | 263° |
| 2026-05-06 08:18 | 21.91507 | 52.85909 | 33794 ft | 437 kts | 263° |
| 2026-05-06 08:19 | 21.90842 | 52.79048 | 33793 ft | 437 kts | 263° |
| 2026-05-06 08:19 | 21.90599 | 52.72123 | 33794 ft | 439 kts | 269° |
| 2026-05-06 08:20 | 21.91074 | 52.65173 | 33794 ft | 440 kts | 276° |
| 2026-05-06 08:20 | 21.92192 | 52.58354 | 33794 ft | 441 kts | 279° |
| 2026-05-06 08:21 | 21.93464 | 52.51463 | 33794 ft | 441 kts | 279° |
| 2026-05-06 08:21 | 21.94719 | 52.44645 | 33794 ft | 441 kts | 279° |
| 2026-05-06 08:22 | 21.95976 | 52.37783 | 33794 ft | 441 kts | 279° |
| 2026-05-06 08:22 | 21.97234 | 52.30896 | 33794 ft | 441 kts | 279° |
| 2026-05-06 08:23 | 21.98474 | 52.24084 | 33795 ft | 441 kts | 279° |
| 2026-05-06 08:23 | 21.99723 | 52.17207 | 33802 ft | 441 kts | 279° |
| 2026-05-06 08:24 | 22.00964 | 52.10360 | 33813 ft | 441 kts | 279° |
| 2026-05-06 08:24 | 22.02197 | 52.03542 | 33825 ft | 441 kts | 279° |
| 2026-05-06 08:25 | 22.03443 | 51.96634 | 33834 ft | 441 kts | 279° |
| 2026-05-06 08:25 | 22.04674 | 51.89791 | 33839 ft | 441 kts | 279° |
| 2026-05-06 08:26 | 22.05900 | 51.82955 | 33842 ft | 441 kts | 279° |
| 2026-05-06 08:26 | 22.07126 | 51.76109 | 33843 ft | 441 kts | 279° |
| 2026-05-06 08:27 | 22.08355 | 51.69225 | 33843 ft | 441 kts | 279° |
| 2026-05-06 08:27 | 22.09579 | 51.62349 | 33843 ft | 441 kts | 279° |
| 2026-05-06 08:28 | 22.10797 | 51.55497 | 33843 ft | 441 kts | 279° |
| 2026-05-06 08:28 | 22.12015 | 51.48619 | 33843 ft | 441 kts | 279° |
| 2026-05-06 08:29 | 22.13226 | 51.41771 | 33843 ft | 441 kts | 279° |
| 2026-05-06 08:29 | 22.14442 | 51.34874 | 33843 ft | 441 kts | 278° |
| 2026-05-06 08:30 | 22.15642 | 51.28048 | 33843 ft | 441 kts | 278° |
| 2026-05-06 08:30 | 22.16851 | 51.21154 | 33843 ft | 440 kts | 278° |
| 2026-05-06 08:31 | 22.18042 | 51.14344 | 33843 ft | 440 kts | 278° |
| 2026-05-06 08:31 | 22.19238 | 51.07491 | 33844 ft | 440 kts | 278° |
| 2026-05-06 08:32 | 22.20431 | 51.00636 | 33843 ft | 439 kts | 278° |
| 2026-05-06 08:32 | 22.21615 | 50.93818 | 33843 ft | 438 kts | 278° |
| 2026-05-06 08:33 | 22.22808 | 50.86929 | 33843 ft | 438 kts | 278° |
| 2026-05-06 08:33 | 22.23974 | 50.80175 | 33843 ft | 438 kts | 278° |
| 2026-05-06 08:34 | 22.25738 | 50.69930 | 33843 ft | 438 kts | 278° |
| 2026-05-06 08:35 | 22.26914 | 50.63076 | 33843 ft | 438 kts | 278° |
| 2026-05-06 08:35 | 22.28079 | 50.56273 | 33843 ft | 438 kts | 278° |
| 2026-05-06 08:36 | 22.29248 | 50.49424 | 33843 ft | 438 kts | 278° |
| 2026-05-06 08:36 | 22.30402 | 50.42643 | 33843 ft | 438 kts | 278° |
| 2026-05-06 08:37 | 22.31565 | 50.35794 | 33843 ft | 438 kts | 278° |
| 2026-05-06 08:37 | 22.32707 | 50.29055 | 33843 ft | 438 kts | 278° |
| 2026-05-06 08:38 | 22.33868 | 50.22179 | 33843 ft | 437 kts | 278° |
| 2026-05-06 08:38 | 22.35014 | 50.15373 | 33843 ft | 437 kts | 278° |
| 2026-05-06 08:39 | 22.36172 | 50.08485 | 33847 ft | 438 kts | 278° |
| 2026-05-06 08:39 | 22.37314 | 50.01669 | 33861 ft | 438 kts | 278° |
| 2026-05-06 08:40 | 22.38453 | 49.94855 | 33882 ft | 438 kts | 278° |
| 2026-05-06 08:40 | 22.39602 | 49.87961 | 33907 ft | 438 kts | 278° |
| 2026-05-06 08:41 | 22.40730 | 49.81179 | 33925 ft | 438 kts | 278° |
| 2026-05-06 08:41 | 22.41871 | 49.74298 | 33934 ft | 438 kts | 278° |
| 2026-05-06 08:42 | 22.42998 | 49.67483 | 33939 ft | 438 kts | 278° |
| 2026-05-06 08:42 | 22.44128 | 49.60624 | 33942 ft | 438 kts | 278° |
| 2026-05-06 08:43 | 22.45250 | 49.53805 | 33943 ft | 438 kts | 278° |
| 2026-05-06 08:43 | 22.46384 | 49.46888 | 33944 ft | 438 kts | 278° |
| 2026-05-06 08:44 | 22.47498 | 49.40081 | 33944 ft | 438 kts | 278° |
| 2026-05-06 08:44 | 22.48607 | 49.33278 | 33945 ft | 438 kts | 278° |
| 2026-05-06 08:45 | 22.49734 | 49.26352 | 33944 ft | 438 kts | 278° |
| 2026-05-06 08:45 | 22.50845 | 49.19503 | 33944 ft | 438 kts | 278° |
| 2026-05-06 08:46 | 22.51926 | 49.12816 | 33945 ft | 436 kts | 278° |
| 2026-05-06 08:46 | 22.53034 | 49.05944 | 33945 ft | 434 kts | 278° |
| 2026-05-06 08:47 | 22.54104 | 48.99291 | 33945 ft | 432 kts | 278° |
| 2026-05-06 08:47 | 22.55178 | 48.92596 | 33944 ft | 430 kts | 278° |
| 2026-05-06 08:48 | 22.56258 | 48.85855 | 33944 ft | 430 kts | 278° |
| 2026-05-06 08:48 | 22.57341 | 48.79070 | 33944 ft | 430 kts | 278° |
| 2026-05-06 08:49 | 22.58416 | 48.72314 | 33944 ft | 430 kts | 278° |
| 2026-05-06 08:49 | 22.59467 | 48.65689 | 33944 ft | 430 kts | 278° |
| 2026-05-06 08:50 | 22.60537 | 48.58936 | 33944 ft | 430 kts | 278° |
| 2026-05-06 08:50 | 22.61611 | 48.52125 | 33944 ft | 430 kts | 278° |
| 2026-05-06 08:51 | 22.62664 | 48.45439 | 33944 ft | 430 kts | 278° |
| 2026-05-06 08:51 | 22.63711 | 48.38766 | 33944 ft | 430 kts | 278° |
| 2026-05-06 08:52 | 22.64712 | 48.32377 | 33945 ft | 430 kts | 278° |
| 2026-05-06 08:52 | 22.65710 | 48.25991 | 33944 ft | 430 kts | 278° |
| 2026-05-06 08:53 | 22.66703 | 48.19622 | 33944 ft | 430 kts | 278° |
| 2026-05-06 08:53 | 22.67697 | 48.13234 | 33944 ft | 430 kts | 278° |
| 2026-05-06 08:54 | 22.68688 | 48.06838 | 33944 ft | 430 kts | 278° |
| 2026-05-06 08:54 | 22.69437 | 48.00416 | 33944 ft | 430 kts | 274° |
| 2026-05-06 08:55 | 22.69977 | 47.94003 | 33944 ft | 430 kts | 274° |
| 2026-05-06 08:55 | 22.70514 | 47.87553 | 33944 ft | 430 kts | 274° |
| 2026-05-06 08:56 | 22.71051 | 47.81094 | 33944 ft | 430 kts | 274° |
| 2026-05-06 08:56 | 22.71583 | 47.74677 | 33944 ft | 430 kts | 274° |
| 2026-05-06 08:57 | 22.72119 | 47.68193 | 33944 ft | 430 kts | 274° |
| 2026-05-06 08:57 | 22.72646 | 47.61776 | 33944 ft | 430 kts | 274° |
| 2026-05-06 08:58 | 22.73176 | 47.55307 | 33944 ft | 430 kts | 274° |
| 2026-05-06 08:58 | 22.73700 | 47.48877 | 33944 ft | 430 kts | 274° |
| 2026-05-06 08:59 | 22.74224 | 47.42410 | 33944 ft | 430 kts | 274° |
| 2026-05-06 08:59 | 22.74743 | 47.35973 | 33944 ft | 430 kts | 274° |
| 2026-05-06 09:00 | 22.75261 | 47.29534 | 33944 ft | 429 kts | 273° |
| 2026-05-06 09:00 | 22.75778 | 47.23084 | 33944 ft | 429 kts | 273° |
| 2026-05-06 09:01 | 22.76290 | 47.16635 | 33944 ft | 429 kts | 273° |
| 2026-05-06 09:01 | 22.76800 | 47.10172 | 33944 ft | 429 kts | 273° |
| 2026-05-06 09:02 | 22.77308 | 47.03727 | 33944 ft | 429 kts | 273° |
| 2026-05-06 09:02 | 22.77815 | 46.97275 | 33944 ft | 429 kts | 274° |
| 2026-05-06 09:03 | 22.78319 | 46.90834 | 33944 ft | 428 kts | 274° |
| 2026-05-06 09:03 | 22.78821 | 46.84401 | 33944 ft | 427 kts | 274° |
| 2026-05-06 09:04 | 22.79318 | 46.78003 | 33944 ft | 427 kts | 274° |
| 2026-05-06 09:04 | 22.79817 | 46.71567 | 33944 ft | 427 kts | 274° |
| 2026-05-06 09:05 | 22.80309 | 46.65189 | 33944 ft | 427 kts | 274° |
| 2026-05-06 09:05 | 22.80798 | 46.58811 | 33939 ft | 427 kts | 274° |
| 2026-05-06 09:06 | 22.81288 | 46.52391 | 33933 ft | 427 kts | 274° |
| 2026-05-06 09:06 | 22.81775 | 46.45988 | 33929 ft | 427 kts | 274° |
| 2026-05-06 09:07 | 22.82256 | 46.39592 | 33928 ft | 427 kts | 274° |
| 2026-05-06 09:07 | 22.82726 | 46.33212 | 33929 ft | 427 kts | 274° |
| 2026-05-06 09:08 | 22.83196 | 46.26803 | 33928 ft | 427 kts | 274° |
| 2026-05-06 09:08 | 22.83668 | 46.20370 | 33928 ft | 427 kts | 274° |
| 2026-05-06 09:09 | 22.84133 | 46.14011 | 33928 ft | 427 kts | 274° |
| 2026-05-06 09:09 | 22.84601 | 46.07588 | 33928 ft | 427 kts | 274° |
| 2026-05-06 09:10 | 22.85063 | 46.01201 | 33928 ft | 427 kts | 274° |
| 2026-05-06 09:10 | 22.85525 | 45.94782 | 33928 ft | 427 kts | 274° |
| 2026-05-06 09:11 | 22.85984 | 45.88361 | 33928 ft | 427 kts | 274° |
| 2026-05-06 09:11 | 22.86438 | 45.81984 | 33928 ft | 427 kts | 274° |
| 2026-05-06 09:12 | 22.86891 | 45.75583 | 33932 ft | 427 kts | 274° |
| 2026-05-06 09:12 | 22.87343 | 45.69167 | 33945 ft | 427 kts | 274° |
| 2026-05-06 09:13 | 22.87791 | 45.62750 | 33963 ft | 427 kts | 274° |
| 2026-05-06 09:13 | 22.88236 | 45.56354 | 33984 ft | 426 kts | 274° |
| 2026-05-06 09:14 | 22.88676 | 45.50003 | 33998 ft | 426 kts | 274° |
| 2026-05-06 09:14 | 22.89116 | 45.43615 | 34006 ft | 425 kts | 274° |
| 2026-05-06 09:15 | 22.89553 | 45.37231 | 34009 ft | 425 kts | 274° |
| 2026-05-06 09:15 | 22.89989 | 45.30821 | 34011 ft | 425 kts | 274° |
| 2026-05-06 09:16 | 22.90420 | 45.24463 | 34011 ft | 424 kts | 273° |
| 2026-05-06 09:16 | 22.90849 | 45.18118 | 34011 ft | 424 kts | 273° |
| 2026-05-06 09:17 | 22.91275 | 45.11758 | 34011 ft | 424 kts | 273° |
| 2026-05-06 09:17 | 22.91696 | 45.05373 | 34011 ft | 423 kts | 273° |
| 2026-05-06 09:18 | 22.92109 | 44.99041 | 34011 ft | 422 kts | 273° |
| 2026-05-06 09:18 | 22.92521 | 44.92722 | 34011 ft | 421 kts | 274° |
| 2026-05-06 09:19 | 22.92932 | 44.86433 | 34011 ft | 420 kts | 274° |
| 2026-05-06 09:19 | 22.93341 | 44.80151 | 34011 ft | 419 kts | 274° |
| 2026-05-06 09:20 | 22.93761 | 44.73826 | 34010 ft | 419 kts | 275° |
| 2026-05-06 09:20 | 22.94557 | 44.67613 | 34011 ft | 418 kts | 280° |
| 2026-05-06 09:21 | 22.95925 | 44.61494 | 34011 ft | 418 kts | 285° |
| 2026-05-06 09:21 | 22.97718 | 44.55535 | 34011 ft | 417 kts | 287° |
| 2026-05-06 09:22 | 22.99552 | 44.49592 | 34011 ft | 415 kts | 287° |
| 2026-05-06 09:22 | 23.01378 | 44.43670 | 34011 ft | 413 kts | 287° |
| 2026-05-06 09:23 | 23.03192 | 44.37777 | 34011 ft | 411 kts | 287° |
| 2026-05-06 09:23 | 23.04994 | 44.31912 | 34012 ft | 410 kts | 286° |
| 2026-05-06 09:24 | 23.06784 | 44.26078 | 34011 ft | 409 kts | 286° |
| 2026-05-06 09:24 | 23.08577 | 44.20227 | 34011 ft | 409 kts | 286° |
| 2026-05-06 09:25 | 23.10369 | 44.14369 | 34011 ft | 409 kts | 286° |
| 2026-05-06 09:25 | 23.12157 | 44.08519 | 34011 ft | 409 kts | 286° |
| 2026-05-06 09:26 | 23.13945 | 44.02655 | 34011 ft | 409 kts | 286° |
| 2026-05-06 09:26 | 23.15725 | 43.96813 | 34011 ft | 409 kts | 286° |
| 2026-05-06 09:27 | 23.17510 | 43.90945 | 34011 ft | 409 kts | 286° |
| 2026-05-06 09:27 | 23.19296 | 43.85066 | 34011 ft | 409 kts | 286° |
| 2026-05-06 09:28 | 23.21065 | 43.79238 | 34011 ft | 409 kts | 286° |
| 2026-05-06 09:28 | 23.22850 | 43.73347 | 34011 ft | 409 kts | 286° |
| 2026-05-06 09:29 | 23.24614 | 43.67520 | 34011 ft | 409 kts | 286° |
| 2026-05-06 09:29 | 23.26396 | 43.61625 | 34011 ft | 409 kts | 286° |
| 2026-05-06 09:30 | 23.28165 | 43.55754 | 34011 ft | 409 kts | 286° |
| 2026-05-06 09:30 | 23.29919 | 43.49911 | 34011 ft | 409 kts | 286° |
| 2026-05-06 09:31 | 23.31686 | 43.44022 | 34011 ft | 409 kts | 286° |
| 2026-05-06 09:31 | 23.33451 | 43.38141 | 34011 ft | 409 kts | 286° |
| 2026-05-06 09:32 | 23.35209 | 43.32274 | 34012 ft | 409 kts | 286° |
| 2026-05-06 09:32 | 23.36969 | 43.26399 | 34011 ft | 409 kts | 286° |
| 2026-05-06 09:33 | 23.38727 | 43.20524 | 34011 ft | 409 kts | 286° |
| 2026-05-06 09:33 | 23.40469 | 43.14677 | 34011 ft | 409 kts | 286° |
| 2026-05-06 09:34 | 23.42212 | 43.08793 | 34011 ft | 408 kts | 287° |
| 2026-05-06 09:34 | 23.43942 | 43.02945 | 34011 ft | 407 kts | 287° |
| 2026-05-06 09:35 | 23.45678 | 42.97084 | 34011 ft | 406 kts | 288° |
| 2026-05-06 09:35 | 23.47401 | 42.91270 | 34011 ft | 406 kts | 288° |
| 2026-05-06 09:36 | 23.49125 | 42.85448 | 34011 ft | 406 kts | 288° |
| 2026-05-06 09:36 | 23.50859 | 42.79574 | 34011 ft | 406 kts | 288° |
| 2026-05-06 09:37 | 23.52578 | 42.73735 | 34011 ft | 406 kts | 288° |
| 2026-05-06 09:37 | 23.54298 | 42.67882 | 34011 ft | 406 kts | 288° |
| 2026-05-06 09:38 | 23.56010 | 42.62056 | 34011 ft | 406 kts | 288° |
| 2026-05-06 09:38 | 23.57730 | 42.56203 | 34011 ft | 406 kts | 288° |
| 2026-05-06 09:39 | 23.59443 | 42.50364 | 34011 ft | 406 kts | 288° |
| 2026-05-06 09:39 | 23.61151 | 42.44538 | 34011 ft | 406 kts | 288° |
| 2026-05-06 09:40 | 23.62864 | 42.38689 | 34011 ft | 406 kts | 288° |
| 2026-05-06 09:40 | 23.65438 | 42.29878 | 34012 ft | 406 kts | 287° |
| 2026-05-06 09:41 | 23.67138 | 42.24019 | 34011 ft | 406 kts | 287° |
| 2026-05-06 09:41 | 23.68833 | 42.18163 | 34011 ft | 406 kts | 287° |
| 2026-05-06 09:42 | 23.70532 | 42.12295 | 34011 ft | 406 kts | 287° |
| 2026-05-06 09:42 | 23.72222 | 42.06455 | 34011 ft | 406 kts | 287° |
| 2026-05-06 09:43 | 23.73915 | 42.00592 | 34011 ft | 406 kts | 287° |
| 2026-05-06 09:43 | 23.75605 | 41.94732 | 34011 ft | 406 kts | 287° |
| 2026-05-06 09:44 | 23.77298 | 41.88872 | 34008 ft | 406 kts | 288° |
| 2026-05-06 09:44 | 23.78994 | 41.83002 | 34003 ft | 406 kts | 288° |
| 2026-05-06 09:45 | 23.80681 | 41.77145 | 33997 ft | 406 kts | 287° |
| 2026-05-06 09:45 | 23.82365 | 41.71276 | 33991 ft | 406 kts | 287° |
| 2026-05-06 09:46 | 23.84049 | 41.65405 | 33988 ft | 406 kts | 287° |
| 2026-05-06 09:46 | 23.85726 | 41.59553 | 33986 ft | 406 kts | 287° |
| 2026-05-06 09:47 | 23.87413 | 41.53642 | 33986 ft | 406 kts | 287° |
| 2026-05-06 09:47 | 23.89076 | 41.47780 | 33986 ft | 406 kts | 287° |
| 2026-05-06 09:48 | 23.90743 | 41.41912 | 33986 ft | 406 kts | 287° |
| 2026-05-06 09:48 | 23.92406 | 41.36041 | 33986 ft | 406 kts | 287° |
| 2026-05-06 09:49 | 23.94077 | 41.30132 | 33987 ft | 406 kts | 287° |
| 2026-05-06 09:49 | 23.95745 | 41.24240 | 33986 ft | 406 kts | 287° |
| 2026-05-06 09:50 | 23.97410 | 41.18355 | 33986 ft | 406 kts | 287° |
| 2026-05-06 09:50 | 23.99076 | 41.12462 | 33986 ft | 406 kts | 287° |
| 2026-05-06 09:51 | 24.00729 | 41.06607 | 33986 ft | 406 kts | 287° |
| 2026-05-06 09:51 | 24.02392 | 41.00711 | 33986 ft | 406 kts | 287° |
| 2026-05-06 09:52 | 24.04045 | 40.94832 | 33986 ft | 407 kts | 287° |
| 2026-05-06 09:52 | 24.05708 | 40.88889 | 33986 ft | 408 kts | 287° |
| 2026-05-06 09:53 | 24.07368 | 40.82959 | 33986 ft | 409 kts | 287° |
| 2026-05-06 09:53 | 24.09031 | 40.77017 | 33986 ft | 410 kts | 287° |
| 2026-05-06 09:54 | 24.10701 | 40.71041 | 33987 ft | 410 kts | 287° |
| 2026-05-06 09:54 | 24.12362 | 40.65095 | 33986 ft | 410 kts | 287° |
| 2026-05-06 09:55 | 24.14024 | 40.59129 | 33986 ft | 410 kts | 287° |
| 2026-05-06 09:55 | 24.15795 | 40.53245 | 33986 ft | 410 kts | 290° |
| 2026-05-06 09:56 | 24.18074 | 40.47506 | 33986 ft | 411 kts | 295° |
| 2026-05-06 09:56 | 24.20702 | 40.41960 | 33987 ft | 411 kts | 297° |
| 2026-05-06 09:57 | 24.23346 | 40.36443 | 33986 ft | 411 kts | 297° |
| 2026-05-06 09:57 | 24.26005 | 40.30890 | 33987 ft | 411 kts | 296° |
| 2026-05-06 09:58 | 24.28642 | 40.25377 | 33986 ft | 411 kts | 296° |
| 2026-05-06 09:58 | 24.31292 | 40.19832 | 33986 ft | 411 kts | 296° |
| 2026-05-06 09:59 | 24.33939 | 40.14288 | 33986 ft | 411 kts | 296° |
| 2026-05-06 09:59 | 24.36565 | 40.08780 | 33986 ft | 411 kts | 296° |
| 2026-05-06 10:00 | 24.39213 | 40.03221 | 33986 ft | 411 kts | 296° |
| 2026-05-06 10:00 | 24.41841 | 39.97699 | 33986 ft | 411 kts | 296° |
| 2026-05-06 10:01 | 24.44487 | 39.92134 | 33986 ft | 411 kts | 296° |
| 2026-05-06 10:01 | 24.47129 | 39.86573 | 33986 ft | 411 kts | 296° |
| 2026-05-06 10:02 | 24.49752 | 39.81039 | 33986 ft | 411 kts | 296° |
| 2026-05-06 10:02 | 24.52652 | 39.75643 | 33986 ft | 412 kts | 303° |
| 2026-05-06 10:03 | 24.56179 | 39.70682 | 33986 ft | 414 kts | 309° |
| 2026-05-06 10:03 | 24.60296 | 39.66248 | 33986 ft | 417 kts | 316° |
| 2026-05-06 10:04 | 24.64878 | 39.62375 | 33987 ft | 419 kts | 320° |
| 2026-05-06 10:04 | 24.69592 | 39.58611 | 33986 ft | 419 kts | 321° |
| 2026-05-06 10:05 | 24.74283 | 39.54867 | 33986 ft | 419 kts | 321° |
| 2026-05-06 10:05 | 24.78993 | 39.51101 | 33986 ft | 419 kts | 321° |
| 2026-05-06 10:06 | 24.83698 | 39.47335 | 33986 ft | 419 kts | 321° |
| 2026-05-06 10:06 | 24.88395 | 39.43573 | 33986 ft | 419 kts | 321° |
| 2026-05-06 10:07 | 24.93078 | 39.39817 | 33986 ft | 419 kts | 321° |
| 2026-05-06 10:07 | 24.97785 | 39.36040 | 33987 ft | 419 kts | 321° |
| 2026-05-06 10:08 | 25.02445 | 39.32298 | 33988 ft | 416 kts | 320° |
| 2026-05-06 10:08 | 25.07082 | 39.28572 | 33988 ft | 412 kts | 320° |
| 2026-05-06 10:09 | 25.11697 | 39.24859 | 33988 ft | 408 kts | 320° |
| 2026-05-06 10:09 | 25.16183 | 39.21134 | 33986 ft | 405 kts | 317° |
| 2026-05-06 10:10 | 25.20347 | 39.16974 | 33980 ft | 403 kts | 312° |
| 2026-05-06 10:10 | 25.24085 | 39.12402 | 33969 ft | 402 kts | 307° |
| 2026-05-06 10:11 | 25.27370 | 39.07470 | 33962 ft | 401 kts | 302° |
| 2026-05-06 10:11 | 25.30415 | 39.02308 | 33959 ft | 402 kts | 301° |
| 2026-05-06 10:12 | 25.33447 | 38.97131 | 33958 ft | 403 kts | 301° |
| 2026-05-06 10:12 | 25.36489 | 38.91925 | 33957 ft | 404 kts | 301° |
| 2026-05-06 10:13 | 25.39535 | 38.86708 | 33957 ft | 405 kts | 301° |
| 2026-05-06 10:13 | 25.42580 | 38.81481 | 33958 ft | 405 kts | 301° |
| 2026-05-06 10:14 | 25.45610 | 38.76277 | 33964 ft | 405 kts | 301° |
| 2026-05-06 10:14 | 25.48646 | 38.71055 | 33977 ft | 405 kts | 301° |
| 2026-05-06 10:15 | 25.51695 | 38.65808 | 33990 ft | 405 kts | 301° |
| 2026-05-06 10:15 | 25.54716 | 38.60602 | 34000 ft | 404 kts | 301° |
| 2026-05-06 10:16 | 25.57748 | 38.55372 | 34007 ft | 404 kts | 301° |
| 2026-05-06 10:16 | 25.60778 | 38.50139 | 34009 ft | 404 kts | 301° |
| 2026-05-06 10:17 | 25.63788 | 38.44933 | 34011 ft | 404 kts | 301° |
| 2026-05-06 10:17 | 25.66827 | 38.39673 | 34011 ft | 404 kts | 301° |
| 2026-05-06 10:18 | 25.69841 | 38.34450 | 34012 ft | 404 kts | 301° |
| 2026-05-06 10:18 | 25.72848 | 38.29234 | 34011 ft | 404 kts | 301° |
| 2026-05-06 10:19 | 25.75868 | 38.23993 | 34011 ft | 404 kts | 301° |
| 2026-05-06 10:19 | 25.78888 | 38.18741 | 34011 ft | 404 kts | 301° |
| 2026-05-06 10:20 | 25.81910 | 38.13484 | 34011 ft | 404 kts | 301° |
| 2026-05-06 10:20 | 25.84903 | 38.08270 | 34011 ft | 404 kts | 301° |
| 2026-05-06 10:21 | 25.87930 | 38.02993 | 34011 ft | 404 kts | 301° |
| 2026-05-06 10:21 | 25.90925 | 37.97769 | 34011 ft | 404 kts | 301° |
| 2026-05-06 10:22 | 25.93948 | 37.92485 | 34011 ft | 404 kts | 301° |
| 2026-05-06 10:22 | 25.96814 | 37.87157 | 34010 ft | 403 kts | 296° |
| 2026-05-06 10:23 | 25.99132 | 37.81534 | 34011 ft | 403 kts | 291° |
| 2026-05-06 10:23 | 26.00869 | 37.75617 | 34010 ft | 403 kts | 285° |
| 2026-05-06 10:24 | 26.01985 | 37.69540 | 34010 ft | 403 kts | 280° |
| 2026-05-06 10:24 | 26.02850 | 37.63388 | 34011 ft | 403 kts | 280° |
| 2026-05-06 10:25 | 26.03697 | 37.57232 | 34011 ft | 403 kts | 280° |
| 2026-05-06 10:25 | 26.04530 | 37.51105 | 34010 ft | 403 kts | 280° |
| 2026-05-06 10:26 | 26.05356 | 37.44921 | 34010 ft | 403 kts | 279° |
| 2026-05-06 10:26 | 26.06170 | 37.38796 | 34009 ft | 403 kts | 279° |
| 2026-05-06 10:27 | 26.06988 | 37.32642 | 34002 ft | 403 kts | 279° |
| 2026-05-06 10:27 | 26.07808 | 37.26475 | 33986 ft | 403 kts | 279° |
| 2026-05-06 10:28 | 26.08623 | 37.20329 | 33968 ft | 403 kts | 279° |
| 2026-05-06 10:28 | 26.09435 | 37.14192 | 33950 ft | 403 kts | 279° |
| 2026-05-06 10:29 | 26.10249 | 37.08016 | 33940 ft | 403 kts | 279° |
| 2026-05-06 10:29 | 26.11051 | 37.01899 | 33934 ft | 402 kts | 279° |
| 2026-05-06 10:30 | 26.11859 | 36.95734 | 33932 ft | 402 kts | 279° |
| 2026-05-06 10:30 | 26.12660 | 36.89582 | 33931 ft | 402 kts | 279° |
| 2026-05-06 10:31 | 26.13458 | 36.83441 | 33932 ft | 402 kts | 279° |
| 2026-05-06 10:31 | 26.14253 | 36.77313 | 33932 ft | 402 kts | 279° |
| 2026-05-06 10:32 | 26.15044 | 36.71198 | 33931 ft | 402 kts | 279° |
| 2026-05-06 10:32 | 26.15840 | 36.65025 | 33932 ft | 402 kts | 279° |
| 2026-05-06 10:33 | 26.16649 | 36.58918 | 33931 ft | 401 kts | 281° |
| 2026-05-06 10:33 | 26.18111 | 36.52945 | 33931 ft | 402 kts | 290° |
| 2026-05-06 10:34 | 26.20493 | 36.47314 | 33931 ft | 404 kts | 298° |
| 2026-05-06 10:34 | 26.23743 | 36.42200 | 33932 ft | 407 kts | 308° |
| 2026-05-06 10:35 | 26.27596 | 36.37606 | 33932 ft | 408 kts | 311° |
| 2026-05-06 10:35 | 26.31556 | 36.33038 | 33933 ft | 408 kts | 310° |
| 2026-05-06 10:36 | 26.35489 | 36.28503 | 33932 ft | 408 kts | 310° |
| 2026-05-06 10:36 | 26.39427 | 36.23958 | 33931 ft | 408 kts | 310° |
| 2026-05-06 10:37 | 26.43356 | 36.19416 | 33931 ft | 408 kts | 310° |
| 2026-05-06 10:37 | 26.47265 | 36.14895 | 33931 ft | 408 kts | 310° |
| 2026-05-06 10:38 | 26.51211 | 36.10325 | 33931 ft | 408 kts | 310° |
| 2026-05-06 10:38 | 26.55124 | 36.05789 | 33931 ft | 408 kts | 310° |
| 2026-05-06 10:39 | 26.59058 | 36.01224 | 33931 ft | 408 kts | 310° |
| 2026-05-06 10:39 | 26.62973 | 35.96677 | 33932 ft | 408 kts | 310° |
| 2026-05-06 10:40 | 26.66899 | 35.92113 | 33931 ft | 408 kts | 310° |
| 2026-05-06 10:40 | 26.70802 | 35.87573 | 33931 ft | 408 kts | 310° |
| 2026-05-06 10:41 | 26.74726 | 35.83004 | 33931 ft | 408 kts | 310° |
| 2026-05-06 10:41 | 26.78649 | 35.78429 | 33931 ft | 408 kts | 310° |
| 2026-05-06 10:42 | 26.82567 | 35.73840 | 33931 ft | 408 kts | 310° |
| 2026-05-06 10:42 | 26.86477 | 35.69257 | 33932 ft | 408 kts | 310° |
| 2026-05-06 10:43 | 26.90366 | 35.64701 | 33936 ft | 408 kts | 310° |
| 2026-05-06 10:44 | 26.96203 | 35.57858 | 33945 ft | 403 kts | 310° |
| 2026-05-06 10:44 | 27.00057 | 35.53336 | 33951 ft | 401 kts | 310° |
| 2026-05-06 10:45 | 27.03881 | 35.48842 | 33955 ft | 398 kts | 310° |
| 2026-05-06 10:45 | 27.07664 | 35.44390 | 33955 ft | 396 kts | 310° |
| 2026-05-06 10:46 | 27.11459 | 35.39918 | 33956 ft | 396 kts | 310° |
| 2026-05-06 10:46 | 27.15262 | 35.35436 | 33956 ft | 396 kts | 310° |
| 2026-05-06 10:47 | 27.19045 | 35.30971 | 33957 ft | 396 kts | 309° |
| 2026-05-06 10:47 | 27.22843 | 35.26483 | 33956 ft | 396 kts | 309° |
| 2026-05-06 10:48 | 27.26627 | 35.22010 | 33956 ft | 396 kts | 309° |
| 2026-05-06 10:48 | 27.30399 | 35.17547 | 33956 ft | 396 kts | 309° |
| 2026-05-06 10:49 | 27.34186 | 35.13058 | 33956 ft | 396 kts | 309° |
| 2026-05-06 10:49 | 27.37952 | 35.08595 | 33956 ft | 396 kts | 309° |
| 2026-05-06 10:50 | 27.41750 | 35.04085 | 33956 ft | 396 kts | 309° |
| 2026-05-06 10:50 | 27.45521 | 34.99611 | 33958 ft | 397 kts | 309° |
| 2026-05-06 10:51 | 27.49314 | 34.95098 | 33967 ft | 397 kts | 309° |
| 2026-05-06 10:51 | 27.53214 | 34.90719 | 33979 ft | 400 kts | 312° |
| 2026-05-06 10:52 | 27.57261 | 34.86436 | 33993 ft | 401 kts | 312° |
| 2026-05-06 10:52 | 27.61330 | 34.82137 | 34007 ft | 402 kts | 312° |
| 2026-05-06 10:53 | 27.65411 | 34.77822 | 34022 ft | 403 kts | 312° |
| 2026-05-06 10:53 | 27.69477 | 34.73519 | 34032 ft | 403 kts | 312° |
| 2026-05-06 10:54 | 27.73544 | 34.69210 | 34036 ft | 403 kts | 312° |
| 2026-05-06 10:54 | 27.77625 | 34.64882 | 34038 ft | 403 kts | 312° |
| 2026-05-06 10:55 | 27.81700 | 34.60558 | 34039 ft | 403 kts | 312° |
| 2026-05-06 10:55 | 27.85756 | 34.56249 | 34039 ft | 403 kts | 312° |
| 2026-05-06 10:56 | 27.89831 | 34.51918 | 34039 ft | 403 kts | 312° |
| 2026-05-06 10:56 | 27.93876 | 34.47613 | 34039 ft | 403 kts | 312° |
| 2026-05-06 10:57 | 27.97932 | 34.43263 | 34038 ft | 402 kts | 310° |
| 2026-05-06 10:57 | 28.01697 | 34.38620 | 34039 ft | 399 kts | 306° |
| 2026-05-06 10:58 | 28.05203 | 34.33791 | 34041 ft | 399 kts | 305° |
| 2026-05-06 10:58 | 28.08694 | 34.28962 | 34040 ft | 398 kts | 305° |
| 2026-05-06 10:59 | 28.12202 | 34.24105 | 34039 ft | 398 kts | 305° |
| 2026-05-06 10:59 | 28.15698 | 34.19256 | 34039 ft | 398 kts | 305° |
| 2026-05-06 11:00 | 28.19194 | 34.14403 | 34039 ft | 398 kts | 305° |
| 2026-05-06 11:00 | 28.22667 | 34.09577 | 34034 ft | 398 kts | 305° |
| 2026-05-06 11:01 | 28.26158 | 34.04722 | 34025 ft | 398 kts | 305° |
| 2026-05-06 11:01 | 28.29633 | 33.99881 | 34013 ft | 398 kts | 305° |
| 2026-05-06 11:02 | 28.33125 | 33.95013 | 34001 ft | 398 kts | 305° |
| 2026-05-06 11:02 | 28.36605 | 33.90156 | 33993 ft | 398 kts | 305° |
| 2026-05-06 11:03 | 28.40099 | 33.85275 | 33988 ft | 398 kts | 305° |
| 2026-05-06 11:03 | 28.43558 | 33.80439 | 33987 ft | 398 kts | 305° |
| 2026-05-06 11:04 | 28.47045 | 33.75559 | 33986 ft | 398 kts | 305° |
| 2026-05-06 11:04 | 28.50532 | 33.70673 | 33986 ft | 398 kts | 305° |
| 2026-05-06 11:05 | 28.54000 | 33.65804 | 33986 ft | 398 kts | 305° |
| 2026-05-06 11:05 | 28.57464 | 33.60947 | 33986 ft | 398 kts | 305° |
| 2026-05-06 11:06 | 28.60950 | 33.56057 | 33986 ft | 398 kts | 305° |
| 2026-05-06 11:06 | 28.64427 | 33.51165 | 33986 ft | 398 kts | 305° |
| 2026-05-06 11:07 | 28.67888 | 33.46269 | 33986 ft | 398 kts | 305° |
| 2026-05-06 11:07 | 28.71357 | 33.41364 | 33986 ft | 398 kts | 305° |
| 2026-05-06 11:08 | 28.74796 | 33.36501 | 33986 ft | 398 kts | 305° |
| 2026-05-06 11:08 | 28.78299 | 33.31542 | 33987 ft | 398 kts | 304° |
| 2026-05-06 11:09 | 28.81750 | 33.26654 | 33986 ft | 398 kts | 304° |
| 2026-05-06 11:09 | 28.85218 | 33.21735 | 33986 ft | 398 kts | 304° |
| 2026-05-06 11:10 | 28.88674 | 33.16827 | 33986 ft | 398 kts | 304° |
| 2026-05-06 11:10 | 28.92117 | 33.11933 | 33986 ft | 398 kts | 304° |
| 2026-05-06 11:11 | 28.95577 | 33.07011 | 33986 ft | 399 kts | 304° |
| 2026-05-06 11:11 | 28.99046 | 33.02073 | 33987 ft | 399 kts | 304° |
| 2026-05-06 11:12 | 29.02494 | 32.97160 | 33987 ft | 397 kts | 303° |
| 2026-05-06 11:12 | 29.05930 | 32.92255 | 33987 ft | 396 kts | 302° |
| 2026-05-06 11:13 | 29.09354 | 32.87361 | 33987 ft | 394 kts | 302° |
| 2026-05-06 11:13 | 29.12771 | 32.82470 | 33987 ft | 392 kts | 301° |
| 2026-05-06 11:14 | 29.16150 | 32.77619 | 33987 ft | 391 kts | 301° |
| 2026-05-06 11:14 | 29.19546 | 32.72745 | 33992 ft | 392 kts | 301° |
| 2026-05-06 11:15 | 29.22922 | 32.67899 | 34002 ft | 391 kts | 301° |
| 2026-05-06 11:15 | 29.26308 | 32.63032 | 34020 ft | 392 kts | 301° |
| 2026-05-06 11:16 | 29.29669 | 32.58176 | 34041 ft | 391 kts | 301° |
| 2026-05-06 11:16 | 29.33022 | 32.53282 | 34055 ft | 391 kts | 301° |
| 2026-05-06 11:17 | 29.36360 | 32.48409 | 34061 ft | 391 kts | 301° |
| 2026-05-06 11:17 | 29.39721 | 32.43503 | 34064 ft | 391 kts | 301° |
| 2026-05-06 11:18 | 29.43054 | 32.38633 | 34065 ft | 391 kts | 301° |
| 2026-05-06 11:18 | 29.46420 | 32.33711 | 34069 ft | 391 kts | 301° |
| 2026-05-06 11:19 | 29.49763 | 32.28818 | 34066 ft | 390 kts | 301° |
| 2026-05-06 11:19 | 29.53089 | 32.23946 | 34065 ft | 391 kts | 301° |
| 2026-05-06 11:20 | 29.56446 | 32.19020 | 34065 ft | 391 kts | 301° |
| 2026-05-06 11:20 | 29.59775 | 32.14130 | 34065 ft | 391 kts | 301° |
| 2026-05-06 11:21 | 29.63127 | 32.09204 | 34065 ft | 391 kts | 301° |
| 2026-05-06 11:21 | 29.66450 | 32.04311 | 34066 ft | 391 kts | 301° |
| 2026-05-06 11:22 | 29.69795 | 31.99385 | 34066 ft | 391 kts | 301° |
| 2026-05-06 11:22 | 29.73119 | 31.94485 | 34065 ft | 390 kts | 301° |
| 2026-05-06 11:23 | 29.76454 | 31.89560 | 34065 ft | 391 kts | 301° |
| 2026-05-06 11:23 | 29.79734 | 31.84640 | 34065 ft | 389 kts | 300° |
| 2026-05-06 11:24 | 29.82945 | 31.79616 | 34065 ft | 389 kts | 299° |
| 2026-05-06 11:24 | 29.86155 | 31.74597 | 34065 ft | 389 kts | 300° |
| 2026-05-06 11:25 | 29.89357 | 31.69601 | 34065 ft | 389 kts | 300° |
| 2026-05-06 11:25 | 29.92563 | 31.64600 | 34065 ft | 389 kts | 300° |
| 2026-05-06 11:26 | 29.95785 | 31.59616 | 34065 ft | 390 kts | 300° |
| 2026-05-06 11:26 | 29.99024 | 31.54612 | 34065 ft | 390 kts | 300° |
| 2026-05-06 11:27 | 30.02252 | 31.49618 | 34065 ft | 390 kts | 300° |
| 2026-05-06 11:27 | 30.05489 | 31.44599 | 34064 ft | 390 kts | 300° |
| 2026-05-06 11:28 | 30.08867 | 31.39697 | 34065 ft | 394 kts | 304° |
| 2026-05-06 11:28 | 30.12663 | 31.35121 | 34065 ft | 399 kts | 309° |
| 2026-05-06 11:29 | 30.16710 | 31.30745 | 34066 ft | 399 kts | 308° |
| 2026-05-06 11:29 | 30.20767 | 31.26382 | 34066 ft | 398 kts | 309° |
| 2026-05-06 11:30 | 30.24802 | 31.22040 | 34065 ft | 399 kts | 309° |
| 2026-05-06 11:30 | 30.28851 | 31.17682 | 34065 ft | 399 kts | 309° |
| 2026-05-06 11:31 | 30.32903 | 31.13315 | 34065 ft | 399 kts | 308° |
| 2026-05-06 11:31 | 30.36955 | 31.08942 | 34066 ft | 400 kts | 308° |
| 2026-05-06 11:32 | 30.41042 | 31.04527 | 34065 ft | 401 kts | 308° |
| 2026-05-06 11:32 | 30.45096 | 31.00141 | 34065 ft | 402 kts | 308° |
| 2026-05-06 11:33 | 30.49179 | 30.95720 | 34065 ft | 403 kts | 308° |
| 2026-05-06 11:33 | 30.53275 | 30.91278 | 34066 ft | 404 kts | 308° |
| 2026-05-06 11:34 | 30.57357 | 30.86846 | 34065 ft | 404 kts | 308° |
| 2026-05-06 11:34 | 30.61447 | 30.82400 | 34065 ft | 404 kts | 308° |
| 2026-05-06 11:35 | 30.65525 | 30.77961 | 34066 ft | 403 kts | 308° |
| 2026-05-06 11:35 | 30.69612 | 30.73511 | 34065 ft | 403 kts | 308° |
| 2026-05-06 11:36 | 30.73674 | 30.69079 | 34065 ft | 403 kts | 308° |
| 2026-05-06 11:36 | 30.77742 | 30.64637 | 34065 ft | 403 kts | 308° |
| 2026-05-06 11:37 | 30.81825 | 30.60173 | 34065 ft | 404 kts | 308° |
| 2026-05-06 11:37 | 30.85896 | 30.55719 | 34065 ft | 403 kts | 308° |
| 2026-05-06 11:38 | 30.89978 | 30.51248 | 34066 ft | 403 kts | 308° |
| 2026-05-06 11:38 | 30.94048 | 30.46792 | 34066 ft | 402 kts | 307° |
| 2026-05-06 11:39 | 30.98080 | 30.42369 | 34066 ft | 398 kts | 307° |
| 2026-05-06 11:39 | 31.02092 | 30.37948 | 34065 ft | 395 kts | 305° |
| 2026-05-06 11:40 | 31.05670 | 30.33273 | 34069 ft | 382 kts | 298° |
| 2026-05-06 11:40 | 31.08608 | 30.28202 | 34067 ft | 374 kts | 291° |
| 2026-05-06 11:41 | 31.10903 | 30.22855 | 34064 ft | 367 kts | 285° |
| 2026-05-06 11:41 | 31.12612 | 30.17292 | 34068 ft | 363 kts | 282° |
| 2026-05-06 11:42 | 31.14188 | 30.11699 | 34079 ft | 363 kts | 281° |
| 2026-05-06 11:42 | 31.15725 | 30.06106 | 34087 ft | 363 kts | 281° |
| 2026-05-06 11:43 | 31.17431 | 30.00556 | 34091 ft | 367 kts | 285° |
| 2026-05-06 11:43 | 31.19570 | 29.95114 | 34093 ft | 371 kts | 289° |
| 2026-05-06 11:44 | 31.23579 | 29.87327 | 34093 ft | 379 kts | 295° |
| 2026-05-06 11:44 | 31.26660 | 29.82329 | 34093 ft | 380 kts | 296° |
| 2026-05-06 11:45 | 31.29766 | 29.77338 | 34093 ft | 380 kts | 296° |
| 2026-05-06 11:45 | 31.32872 | 29.72350 | 34094 ft | 381 kts | 296° |
| 2026-05-06 11:46 | 31.35971 | 29.67369 | 34094 ft | 380 kts | 296° |
| 2026-05-06 11:46 | 31.39074 | 29.62380 | 34093 ft | 380 kts | 296° |
| 2026-05-06 11:47 | 31.42160 | 29.57408 | 34093 ft | 380 kts | 296° |
| 2026-05-06 11:47 | 31.45274 | 29.52388 | 34094 ft | 380 kts | 296° |
| 2026-05-06 11:48 | 31.48360 | 29.47411 | 34093 ft | 380 kts | 296° |
| 2026-05-06 11:48 | 31.51445 | 29.42426 | 34093 ft | 380 kts | 296° |
| 2026-05-06 11:49 | 31.54560 | 29.37392 | 34093 ft | 380 kts | 296° |
| 2026-05-06 11:49 | 31.57629 | 29.32416 | 34095 ft | 380 kts | 296° |
| 2026-05-06 11:50 | 31.60725 | 29.27377 | 34094 ft | 379 kts | 296° |
| 2026-05-06 11:50 | 31.63797 | 29.22367 | 34095 ft | 379 kts | 296° |
| 2026-05-06 11:51 | 31.66867 | 29.17354 | 34098 ft | 380 kts | 296° |
| 2026-05-06 11:51 | 31.69980 | 29.12354 | 34102 ft | 382 kts | 298° |
| 2026-05-06 11:52 | 31.73441 | 29.07591 | 34107 ft | 389 kts | 302° |
| 2026-05-06 11:52 | 31.77012 | 29.03480 | 34112 ft | 395 kts | 307° |
| 2026-05-06 11:53 | 31.81524 | 28.99019 | 34117 ft | 399 kts | 309° |
| 2026-05-06 11:53 | 31.85786 | 28.94909 | 34118 ft | 398 kts | 309° |
| 2026-05-06 11:54 | 31.90065 | 28.90781 | 34119 ft | 399 kts | 308° |
| 2026-05-06 11:54 | 31.94314 | 28.86676 | 34119 ft | 399 kts | 308° |
| 2026-05-06 11:55 | 31.98590 | 28.82541 | 34120 ft | 398 kts | 308° |
| 2026-05-06 11:55 | 32.02869 | 28.78397 | 34119 ft | 399 kts | 308° |
| 2026-05-06 11:56 | 32.07132 | 28.74260 | 34120 ft | 399 kts | 308° |
| 2026-05-06 11:56 | 32.11422 | 28.70095 | 34118 ft | 399 kts | 308° |
| 2026-05-06 11:57 | 32.15672 | 28.65964 | 34120 ft | 399 kts | 308° |
| 2026-05-06 11:57 | 32.19958 | 28.61793 | 34119 ft | 399 kts | 308° |
| 2026-05-06 11:58 | 32.24227 | 28.57632 | 34121 ft | 399 kts | 308° |
| 2026-05-06 11:58 | 32.28465 | 28.53497 | 34120 ft | 398 kts | 308° |
| 2026-05-06 11:59 | 32.32732 | 28.49330 | 34120 ft | 399 kts | 308° |
| 2026-05-06 11:59 | 32.36975 | 28.45178 | 34120 ft | 399 kts | 308° |
| 2026-05-06 12:00 | 32.41259 | 28.40983 | 34120 ft | 399 kts | 308° |
| 2026-05-06 12:00 | 32.45527 | 28.36798 | 34120 ft | 399 kts | 308° |
| 2026-05-06 12:01 | 32.49783 | 28.32619 | 34122 ft | 398 kts | 308° |
| 2026-05-06 12:01 | 32.54009 | 28.28465 | 34126 ft | 398 kts | 308° |
| 2026-05-06 12:02 | 32.58277 | 28.24263 | 34138 ft | 398 kts | 307° |
| 2026-05-06 12:02 | 32.62501 | 28.20099 | 34152 ft | 398 kts | 308° |
| 2026-05-06 12:03 | 32.66736 | 28.15921 | 34163 ft | 398 kts | 307° |
| 2026-05-06 12:03 | 32.70971 | 28.11735 | 34171 ft | 398 kts | 308° |
| 2026-05-06 12:04 | 32.75219 | 28.07533 | 34173 ft | 398 kts | 307° |
| 2026-05-06 12:04 | 32.79457 | 28.03335 | 34173 ft | 398 kts | 307° |
| 2026-05-06 12:05 | 32.83702 | 27.99124 | 34174 ft | 398 kts | 307° |
| 2026-05-06 12:05 | 32.87931 | 27.94924 | 34174 ft | 398 kts | 307° |
| 2026-05-06 12:06 | 32.92161 | 27.90717 | 34174 ft | 398 kts | 308° |
| 2026-05-06 12:06 | 32.96402 | 27.86493 | 34174 ft | 397 kts | 308° |
| 2026-05-06 12:07 | 33.00637 | 27.82250 | 34170 ft | 403 kts | 309° |
| 2026-05-06 12:07 | 33.04957 | 27.77915 | 34170 ft | 411 kts | 311° |
| 2026-05-06 12:08 | 33.09355 | 27.73511 | 34170 ft | 419 kts | 313° |
| 2026-05-06 12:08 | 33.13836 | 27.69029 | 34172 ft | 426 kts | 314° |
| 2026-05-06 12:09 | 33.18322 | 27.64555 | 34174 ft | 427 kts | 314° |
| 2026-05-06 12:09 | 33.22884 | 27.59992 | 34174 ft | 428 kts | 314° |
| 2026-05-06 12:10 | 33.27417 | 27.55442 | 34174 ft | 427 kts | 314° |
| 2026-05-06 12:10 | 33.31965 | 27.50865 | 34173 ft | 427 kts | 314° |
| 2026-05-06 12:11 | 33.36490 | 27.46306 | 34161 ft | 427 kts | 314° |
| 2026-05-06 12:11 | 33.41005 | 27.41747 | 34143 ft | 427 kts | 314° |
| 2026-05-06 12:12 | 33.45422 | 27.37282 | 34123 ft | 427 kts | 314° |
| 2026-05-06 12:12 | 33.49974 | 27.32673 | 34110 ft | 427 kts | 314° |
| 2026-05-06 12:13 | 33.54391 | 27.28197 | 34101 ft | 427 kts | 314° |
| 2026-05-06 12:13 | 33.58729 | 27.23794 | 34098 ft | 427 kts | 314° |
| 2026-05-06 12:14 | 33.63418 | 27.19028 | 34096 ft | 427 kts | 314° |
| 2026-05-06 12:14 | 33.67921 | 27.14446 | 34095 ft | 427 kts | 314° |
| 2026-05-06 12:15 | 33.72263 | 27.10018 | 34096 ft | 427 kts | 314° |
| 2026-05-06 12:15 | 33.76902 | 27.05279 | 34095 ft | 427 kts | 314° |
| 2026-05-06 12:16 | 33.81407 | 27.00675 | 34096 ft | 427 kts | 315° |
| 2026-05-06 12:16 | 33.85855 | 26.96127 | 34094 ft | 428 kts | 315° |
| 2026-05-06 12:17 | 33.89643 | 26.92251 | 34095 ft | 428 kts | 316° |
| 2026-05-06 12:17 | 33.94786 | 26.86981 | 34093 ft | 429 kts | 317° |
| 2026-05-06 12:18 | 33.98411 | 26.83608 | 34095 ft | 430 kts | 321° |
| 2026-05-06 12:18 | 34.04078 | 26.79318 | 34095 ft | 432 kts | 327° |
| 2026-05-06 12:19 | 34.08968 | 26.76357 | 34095 ft | 433 kts | 330° |
| 2026-05-06 12:19 | 34.14679 | 26.73052 | 34095 ft | 432 kts | 330° |
| 2026-05-06 12:20 | 34.19967 | 26.69988 | 34096 ft | 432 kts | 330° |
| 2026-05-06 12:20 | 34.25238 | 26.66922 | 34096 ft | 432 kts | 330° |
| 2026-05-06 12:21 | 34.30531 | 26.63837 | 34094 ft | 432 kts | 330° |